Lucia De Jesus — CUKL3 — position and weather

sailwx.info

Track history (hours):
 
Tides and Currents Weather Stations Pressure Air Temp Water Temp Dewpoint Dewpoint Depression Visibility Wind Speed Wind Dir Waves Ship Positions

Lucia De Jesus

Last reported at 2017-Sep-21 13:56 UTC. Time now 2017-Sep-24 06:46 UTC.
Position N 38°26' W 009°07'.

Length 16 m.

Type: Fishing. MMSI: 263294000.

Date/timePositionNaut miles runAvg speedWind from/ knotsBaromVisibWave heightAir tempDewpointWater temp
2017-Sep-21 13:56N 38°26' W 009°07'0 0.4
2017-Sep-21 13:31N 38°26' W 009°07'6 7.5
2017-Sep-21 12:46N 38°24' W 009°13'2 9.4
2017-Sep-21 12:30N 38°23' W 009°16'5 9.5
2017-Sep-21 11:59N 38°23' W 009°22'4 7.5
2017-Sep-21 11:30N 38°24' W 009°27'2 4.9
2017-Sep-21 11:00N 38°26' W 009°27'0 0.7
2017-Sep-21 10:31N 38°26' W 009°27'0 0.4
2017-Sep-21 10:00N 38°25' W 009°27'0 0.2
2017-Sep-21 09:30N 38°25' W 009°27'0 0.4
2017-Sep-21 09:00N 38°25' W 009°27'0 0.6
2017-Sep-21 08:30N 38°25' W 009°27'0 0.5
2017-Sep-21 08:00N 38°25' W 009°27'0 0.2
2017-Sep-21 07:30N 38°25' W 009°27'0 0.9
2017-Sep-21 07:00N 38°24' W 009°27'0 1.0
2017-Sep-21 06:30N 38°24' W 009°27'0 0.7
2017-Sep-21 06:00N 38°23' W 009°26'0 0.9
2017-Sep-21 05:30N 38°23' W 009°26'0 0.6
2017-Sep-21 05:00N 38°23' W 009°26'0 0.6
2017-Sep-21 04:23N 38°23' W 009°26'3 8.7
2017-Sep-21 04:01N 38°26' W 009°28'2 3.3
2017-Sep-21 03:29N 38°26' W 009°30'2 3.6
2017-Sep-21 03:00N 38°25' W 009°32'2 3.9
2017-Sep-21 02:30N 38°24' W 009°34'1 1.2
2017-Sep-21 02:00N 38°24' W 009°33'0 0.4
2017-Sep-21 01:30N 38°24' W 009°33'1 0.7
2017-Sep-21 00:33N 38°25' W 009°32'0 0.9
2017-Sep-21 00:26N 38°25' W 009°32'0 1.0
2017-Sep-21 00:00N 38°25' W 009°32'0 0.9
2017-Sep-20 23:29N 38°25' W 009°31'1 1.0
2017-Sep-20 22:56N 38°26' W 009°31'0 0.9
2017-Sep-20 22:30N 38°26' W 009°30'1 1.2
2017-Sep-20 22:00N 38°26' W 009°30'1 1.1
2017-Sep-20 21:30N 38°26' W 009°29'0 0.9
2017-Sep-20 21:00N 38°26' W 009°28'0 0.6
2017-Sep-20 20:30N 38°26' W 009°28'0 0.7
2017-Sep-20 20:00N 38°26' W 009°28'3 6.5
2017-Sep-20 19:30N 38°26' W 009°23'4 8.8
2017-Sep-20 19:00N 38°25' W 009°18'3 6.9
2017-Sep-20 18:30N 38°24' W 009°14'4 8.8
2017-Sep-20 18:00N 38°26' W 009°08'1 2.8
2017-Sep-20 17:30N 38°26' W 009°07'0 0.0
2017-Sep-19 16:06N 38°26' W 009°07'0 0.1
2017-Sep-19 15:59N 38°26' W 009°07'4 5.1
2017-Sep-19 15:11N 38°24' W 009°11'2 9.2
2017-Sep-19 14:59N 38°24' W 009°13'5 9.5
2017-Sep-19 14:30N 38°23' W 009°19'5 9.8
2017-Sep-19 14:00N 38°23' W 009°25'2 4.0
2017-Sep-19 13:30N 38°24' W 009°27'2 3.9
2017-Sep-19 13:00N 38°26' W 009°27'0 0.6
2017-Sep-19 12:30N 38°26' W 009°27'0 0.9
2017-Sep-19 12:00N 38°26' W 009°27'0 0.2
2017-Sep-19 11:30N 38°26' W 009°27'0 0.6
2017-Sep-19 11:00N 38°25' W 009°27'0 0.5
2017-Sep-19 10:30N 38°25' W 009°27'0 0.8
2017-Sep-19 10:00N 38°25' W 009°27'0 0.9
2017-Sep-19 09:30N 38°24' W 009°27'1 1.2
2017-Sep-19 09:00N 38°24' W 009°27'0 0.6
2017-Sep-19 08:28N 38°23' W 009°26'0 0.2
2017-Sep-19 08:00N 38°23' W 009°26'0 0.3
2017-Sep-19 07:30N 38°23' W 009°26'1 1.4
2017-Sep-19 06:59N 38°24' W 009°27'3 5.6
2017-Sep-19 06:30N 38°27' W 009°28'2 4.1
2017-Sep-19 06:00N 38°26' W 009°30'3 4.9
2017-Sep-19 05:29N 38°24' W 009°33'1 1.3
2017-Sep-19 04:59N 38°24' W 009°34'0 0.7
2017-Sep-19 04:30N 38°24' W 009°33'0 0.6
2017-Sep-19 03:58N 38°25' W 009°33'1 1.0
2017-Sep-19 03:24N 38°25' W 009°32'0 0.9
2017-Sep-19 03:00N 38°25' W 009°32'1 1.1
2017-Sep-19 02:30N 38°25' W 009°31'1 1.3
2017-Sep-19 02:00N 38°26' W 009°31'0 0.9
2017-Sep-19 01:30N 38°26' W 009°30'1 1.1
2017-Sep-19 01:00N 38°26' W 009°29'1 1.1
2017-Sep-19 00:30N 38°26' W 009°29'1 1.0
2017-Sep-18 23:59N 38°26' W 009°28'0 0.9
2017-Sep-18 23:30N 38°26' W 009°27'0 0.4
2017-Sep-18 22:59N 38°26' W 009°27'4 7.4
2017-Sep-18 22:29N 38°26' W 009°23'4 9.0
2017-Sep-18 22:00N 38°25' W 009°17'7 8.6
2017-Sep-18 21:13N 38°25' W 009°09'2 9.3
2017-Sep-18 20:59N 38°26' W 009°07'0 0.6
2017-Sep-18 20:30N 38°26' W 009°07'0 0.0
2017-Sep-17 21:22N 38°26' W 009°07'0 0.1
2017-Sep-17 20:55N 38°26' W 009°07'0 0.2
2017-Sep-17 20:30N 38°26' W 009°07'3 5.4
2017-Sep-17 20:00N 38°25' W 009°10'5 9.4
2017-Sep-17 19:30N 38°24' W 009°15'5 9.4
2017-Sep-17 19:01N 38°23' W 009°21'4 7.3
2017-Sep-17 18:29N 38°23' W 009°26'2 3.8
2017-Sep-17 18:00N 38°25' W 009°27'3 5.1
2017-Sep-17 17:30N 38°27' W 009°27'2 3.7
2017-Sep-17 17:01N 38°26' W 009°27'1 2.6
2017-Sep-17 16:30N 38°24' W 009°27'0 0.6
2017-Sep-17 16:00N 38°25' W 009°27'0 0.9
2017-Sep-17 15:29N 38°25' W 009°27'1 1.1
2017-Sep-17 15:00N 38°26' W 009°27'0 0.7
2017-Sep-17 14:31N 38°26' W 009°27'0 0.4
2017-Sep-17 14:01N 38°26' W 009°27'0 0.3
2017-Sep-17 13:31N 38°26' W 009°27'1 1.5
2017-Sep-17 12:59N 38°25' W 009°27'3 5.9
2017-Sep-17 12:31N 38°23' W 009°26'0 0.3
2017-Sep-17 12:00N 38°23' W 009°26'0 0.5
2017-Sep-17 11:29N 38°23' W 009°26'1 2.1
2017-Sep-17 11:00N 38°24' W 009°27'2 3.8
2017-Sep-17 10:30N 38°26' W 009°27'2 3.2
2017-Sep-17 10:00N 38°27' W 009°29'2 5.1
2017-Sep-17 09:30N 38°25' W 009°32'2 3.9
2017-Sep-17 09:00N 38°24' W 009°34'0 0.4
2017-Sep-17 08:30N 38°24' W 009°34'0 0.4
2017-Sep-17 07:59N 38°24' W 009°33'0 0.6
2017-Sep-17 07:29N 38°24' W 009°33'1 0.8
2017-Sep-17 06:44N 38°25' W 009°32'0 0.6
2017-Sep-17 06:29N 38°25' W 009°32'0 0.7
2017-Sep-17 06:00N 38°25' W 009°32'0 0.9
2017-Sep-17 05:27N 38°25' W 009°31'0 0.8
2017-Sep-17 05:00N 38°26' W 009°31'0 0.9
2017-Sep-17 04:29N 38°26' W 009°30'1 0.9
2017-Sep-17 03:56N 38°26' W 009°30'0 0.8
2017-Sep-17 03:25N 38°26' W 009°29'0 0.6
2017-Sep-17 03:00N 38°26' W 009°29'0 0.4
2017-Sep-17 02:30N 38°26' W 009°29'2 3.8
2017-Sep-17 02:00N 38°26' W 009°26'5 8.5
2017-Sep-17 01:25N 38°25' W 009°20'4 9.1
2017-Sep-17 01:00N 38°24' W 009°15'7 8.8
2017-Sep-17 00:14N 38°26' W 009°07'1 3.3
2017-Sep-16 23:58N 38°26' W 009°07'0 0.0
2017-Sep-15 09:26N 38°26' W 009°07'0 0.4
2017-Sep-15 09:00N 38°26' W 009°07'0 0.0
2017-Sep-14 11:19N 38°26' W 009°07'0 0.3
2017-Sep-14 11:00N 38°26' W 009°07'4 7.2
2017-Sep-14 10:24N 38°24' W 009°12'4 9.2
2017-Sep-14 10:00N 38°24' W 009°16'5 9.5
2017-Sep-14 09:30N 38°23' W 009°22'3 6.6
2017-Sep-14 08:59N 38°23' W 009°26'3 5.3
2017-Sep-14 08:29N 38°26' W 009°27'1 2.8
2017-Sep-14 08:00N 38°27' W 009°28'2 3.3
2017-Sep-14 07:28N 38°26' W 009°27'0 0.6
2017-Sep-14 07:00N 38°26' W 009°27'0 0.5
2017-Sep-14 06:27N 38°26' W 009°27'0 0.5
2017-Sep-14 06:00N 38°26' W 009°27'0 0.6
2017-Sep-14 05:29N 38°27' W 009°28'2 3.4
2017-Sep-14 05:00N 38°25' W 009°27'0 0.8
2017-Sep-14 04:29N 38°25' W 009°27'1 1.4
2017-Sep-14 04:01N 38°24' W 009°27'0 0.8
2017-Sep-14 03:30N 38°24' W 009°27'1 1.0
2017-Sep-14 03:00N 38°23' W 009°27'1 2.0
2017-Sep-14 02:26N 38°23' W 009°25'5 9.2
2017-Sep-14 01:55N 38°23' W 009°19'4 9.4
2017-Sep-14 01:30N 38°24' W 009°14'6 9.6
2017-Sep-14 00:54N 38°26' W 009°07'1 0.6
2017-Sep-13 23:33N 38°26' W 009°07'0 0.0
2017-Sep-13 23:29N 38°26' W 009°07'5 5.4
2017-Sep-13 22:31N 38°24' W 009°13'0 9.3
2017-Sep-13 22:30N 38°24' W 009°13'5 9.0
2017-Sep-13 21:59N 38°24' W 009°19'4 9.1
2017-Sep-13 21:30N 38°23' W 009°24'2 2.5
2017-Sep-13 20:53N 38°22' W 009°26'0 0.4
2017-Sep-13 20:31N 38°22' W 009°26'2 4.9
2017-Sep-13 20:00N 38°24' W 009°28'3 5.1
2017-Sep-13 19:30N 38°26' W 009°30'2 4.0
2017-Sep-13 19:00N 38°25' W 009°32'2 3.5
2017-Sep-13 18:29N 38°24' W 009°34'1 1.5
2017-Sep-13 17:59N 38°25' W 009°34'2 3.1
2017-Sep-13 17:29N 38°24' W 009°33'0 0.2
2017-Sep-13 17:00N 38°24' W 009°33'0 0.2
2017-Sep-13 16:30N 38°24' W 009°33'0 0.4
2017-Sep-13 15:59N 38°24' W 009°33'0 0.5
2017-Sep-13 15:28N 38°24' W 009°33'1 2.4
2017-Sep-13 15:00N 38°24' W 009°32'1 2.2
2017-Sep-13 14:30N 38°25' W 009°31'0 0.8
2017-Sep-13 13:57N 38°25' W 009°31'0 0.7
2017-Sep-13 13:29N 38°26' W 009°30'1 1.2
2017-Sep-13 12:58N 38°26' W 009°29'0 1.0
2017-Sep-13 12:29N 38°26' W 009°29'0 0.7
2017-Sep-13 12:00N 38°26' W 009°28'0 0.3
2017-Sep-13 11:26N 38°26' W 009°28'4 7.5
2017-Sep-13 10:58N 38°26' W 009°24'4 9.1
2017-Sep-13 10:30N 38°25' W 009°19'5 9.1
2017-Sep-13 10:00N 38°24' W 009°13'6 9.1
2017-Sep-13 09:23N 38°26' W 009°06'0 0.5
2017-Sep-13 08:48N 38°26' W 009°07'0 0.0
2017-Sep-11 18:32N 38°26' W 009°07'0 0.0
2017-Sep-11 18:30N 38°26' W 009°07'0 0.1
2017-Sep-11 18:00N 38°26' W 009°07'2 3.3
2017-Sep-11 17:30N 38°25' W 009°08'5 9.3
2017-Sep-11 17:00N 38°24' W 009°14'5 9.3
2017-Sep-11 16:30N 38°23' W 009°20'5 8.9
2017-Sep-11 15:58N 38°23' W 009°26'1 3.1
2017-Sep-11 15:30N 38°24' W 009°27'2 4.7
2017-Sep-11 15:00N 38°26' W 009°27'0 0.1
2017-Sep-11 14:29N 38°26' W 009°27'1 1.4
2017-Sep-11 13:59N 38°25' W 009°27'  
Track history (hours):
 
Tides and Currents Weather Stations Pressure Air Temp Water Temp Dewpoint Dewpoint Depression Visibility Wind Speed Wind Dir Waves Ship Positions

Lucia De Jesus

Last reported at 2017-Sep-21 13:56 UTC. Time now 2017-Sep-24 06:46 UTC.
Position N 38°26' W 009°07'.

Length 16 m.

Type: Fishing. MMSI: 263294000.

Date/timePositionNaut miles runAvg speedWind from/ knotsBaromVisibWave heightAir tempDewpointWater temp
2017-Sep-21 13:56N 38°26' W 009°07'0 0.4
2017-Sep-21 13:31N 38°26' W 009°07'6 7.5
2017-Sep-21 12:46N 38°24' W 009°13'2 9.4
2017-Sep-21 12:30N 38°23' W 009°16'5 9.5
2017-Sep-21 11:59N 38°23' W 009°22'4 7.5
2017-Sep-21 11:30N 38°24' W 009°27'2 4.9
2017-Sep-21 11:00N 38°26' W 009°27'0 0.7
2017-Sep-21 10:31N 38°26' W 009°27'0 0.4
2017-Sep-21 10:00N 38°25' W 009°27'0 0.2
2017-Sep-21 09:30N 38°25' W 009°27'0 0.4
2017-Sep-21 09:00N 38°25' W 009°27'0 0.6
2017-Sep-21 08:30N 38°25' W 009°27'0 0.5
2017-Sep-21 08:00N 38°25' W 009°27'0 0.2
2017-Sep-21 07:30N 38°25' W 009°27'0 0.9
2017-Sep-21 07:00N 38°24' W 009°27'0 1.0
2017-Sep-21 06:30N 38°24' W 009°27'0 0.7
2017-Sep-21 06:00N 38°23' W 009°26'0 0.9
2017-Sep-21 05:30N 38°23' W 009°26'0 0.6
2017-Sep-21 05:00N 38°23' W 009°26'0 0.6
2017-Sep-21 04:23N 38°23' W 009°26'3 8.7
2017-Sep-21 04:01N 38°26' W 009°28'2 3.3
2017-Sep-21 03:29N 38°26' W 009°30'2 3.6
2017-Sep-21 03:00N 38°25' W 009°32'2 3.9
2017-Sep-21 02:30N 38°24' W 009°34'1 1.2
2017-Sep-21 02:00N 38°24' W 009°33'0 0.4
2017-Sep-21 01:30N 38°24' W 009°33'1 0.7
2017-Sep-21 00:33N 38°25' W 009°32'0 0.9
2017-Sep-21 00:26N 38°25' W 009°32'0 1.0
2017-Sep-21 00:00N 38°25' W 009°32'0 0.9
2017-Sep-20 23:29N 38°25' W 009°31'1 1.0
2017-Sep-20 22:56N 38°26' W 009°31'0 0.9
2017-Sep-20 22:30N 38°26' W 009°30'1 1.2
2017-Sep-20 22:00N 38°26' W 009°30'1 1.1
2017-Sep-20 21:30N 38°26' W 009°29'0 0.9
2017-Sep-20 21:00N 38°26' W 009°28'0 0.6
2017-Sep-20 20:30N 38°26' W 009°28'0 0.7
2017-Sep-20 20:00N 38°26' W 009°28'3 6.5
2017-Sep-20 19:30N 38°26' W 009°23'4 8.8
2017-Sep-20 19:00N 38°25' W 009°18'3 6.9
2017-Sep-20 18:30N 38°24' W 009°14'4 8.8
2017-Sep-20 18:00N 38°26' W 009°08'1 2.8
2017-Sep-20 17:30N 38°26' W 009°07'0 0.0
2017-Sep-19 16:06N 38°26' W 009°07'0 0.1
2017-Sep-19 15:59N 38°26' W 009°07'4 5.1
2017-Sep-19 15:11N 38°24' W 009°11'2 9.2
2017-Sep-19 14:59N 38°24' W 009°13'5 9.5
2017-Sep-19 14:30N 38°23' W 009°19'5 9.8
2017-Sep-19 14:00N 38°23' W 009°25'2 4.0
2017-Sep-19 13:30N 38°24' W 009°27'2 3.9
2017-Sep-19 13:00N 38°26' W 009°27'0 0.6
2017-Sep-19 12:30N 38°26' W 009°27'0 0.9
2017-Sep-19 12:00N 38°26' W 009°27'0 0.2
2017-Sep-19 11:30N 38°26' W 009°27'0 0.6
2017-Sep-19 11:00N 38°25' W 009°27'0 0.5
2017-Sep-19 10:30N 38°25' W 009°27'0 0.8
2017-Sep-19 10:00N 38°25' W 009°27'0 0.9
2017-Sep-19 09:30N 38°24' W 009°27'1 1.2
2017-Sep-19 09:00N 38°24' W 009°27'0 0.6
2017-Sep-19 08:28N 38°23' W 009°26'0 0.2
2017-Sep-19 08:00N 38°23' W 009°26'0 0.3
2017-Sep-19 07:30N 38°23' W 009°26'1 1.4
2017-Sep-19 06:59N 38°24' W 009°27'3 5.6
2017-Sep-19 06:30N 38°27' W 009°28'2 4.1
2017-Sep-19 06:00N 38°26' W 009°30'3 4.9
2017-Sep-19 05:29N 38°24' W 009°33'1 1.3
2017-Sep-19 04:59N 38°24' W 009°34'0 0.7
2017-Sep-19 04:30N 38°24' W 009°33'0 0.6
2017-Sep-19 03:58N 38°25' W 009°33'1 1.0
2017-Sep-19 03:24N 38°25' W 009°32'0 0.9
2017-Sep-19 03:00N 38°25' W 009°32'1 1.1
2017-Sep-19 02:30N 38°25' W 009°31'1 1.3
2017-Sep-19 02:00N 38°26' W 009°31'0 0.9
2017-Sep-19 01:30N 38°26' W 009°30'1 1.1
2017-Sep-19 01:00N 38°26' W 009°29'1 1.1
2017-Sep-19 00:30N 38°26' W 009°29'1 1.0
2017-Sep-18 23:59N 38°26' W 009°28'0 0.9
2017-Sep-18 23:30N 38°26' W 009°27'0 0.4
2017-Sep-18 22:59N 38°26' W 009°27'4 7.4
2017-Sep-18 22:29N 38°26' W 009°23'4 9.0
2017-Sep-18 22:00N 38°25' W 009°17'7 8.6
2017-Sep-18 21:13N 38°25' W 009°09'2 9.3
2017-Sep-18 20:59N 38°26' W 009°07'0 0.6
2017-Sep-18 20:30N 38°26' W 009°07'0 0.0
2017-Sep-17 21:22N 38°26' W 009°07'0 0.1
2017-Sep-17 20:55N 38°26' W 009°07'0 0.2
2017-Sep-17 20:30N 38°26' W 009°07'3 5.4
2017-Sep-17 20:00N 38°25' W 009°10'5 9.4
2017-Sep-17 19:30N 38°24' W 009°15'5 9.4
2017-Sep-17 19:01N 38°23' W 009°21'4 7.3
2017-Sep-17 18:29N 38°23' W 009°26'2 3.8
2017-Sep-17 18:00N 38°25' W 009°27'3 5.1
2017-Sep-17 17:30N 38°27' W 009°27'2 3.7
2017-Sep-17 17:01N 38°26' W 009°27'1 2.6
2017-Sep-17 16:30N 38°24' W 009°27'0 0.6
2017-Sep-17 16:00N 38°25' W 009°27'0 0.9
2017-Sep-17 15:29N 38°25' W 009°27'1 1.1
2017-Sep-17 15:00N 38°26' W 009°27'0 0.7
2017-Sep-17 14:31N 38°26' W 009°27'0 0.4
2017-Sep-17 14:01N 38°26' W 009°27'0 0.3
2017-Sep-17 13:31N 38°26' W 009°27'1 1.5
2017-Sep-17 12:59N 38°25' W 009°27'3 5.9
2017-Sep-17 12:31N 38°23' W 009°26'0 0.3
2017-Sep-17 12:00N 38°23' W 009°26'0 0.5
2017-Sep-17 11:29N 38°23' W 009°26'1 2.1
2017-Sep-17 11:00N 38°24' W 009°27'2 3.8
2017-Sep-17 10:30N 38°26' W 009°27'2 3.2
2017-Sep-17 10:00N 38°27' W 009°29'2 5.1
2017-Sep-17 09:30N 38°25' W 009°32'2 3.9
2017-Sep-17 09:00N 38°24' W 009°34'0 0.4
2017-Sep-17 08:30N 38°24' W 009°34'0 0.4
2017-Sep-17 07:59N 38°24' W 009°33'0 0.6
2017-Sep-17 07:29N 38°24' W 009°33'1 0.8
2017-Sep-17 06:44N 38°25' W 009°32'0 0.6
2017-Sep-17 06:29N 38°25' W 009°32'0 0.7
2017-Sep-17 06:00N 38°25' W 009°32'0 0.9
2017-Sep-17 05:27N 38°25' W 009°31'0 0.8
2017-Sep-17 05:00N 38°26' W 009°31'0 0.9
2017-Sep-17 04:29N 38°26' W 009°30'1 0.9
2017-Sep-17 03:56N 38°26' W 009°30'0 0.8
2017-Sep-17 03:25N 38°26' W 009°29'0 0.6
2017-Sep-17 03:00N 38°26' W 009°29'0 0.4
2017-Sep-17 02:30N 38°26' W 009°29'2 3.8
2017-Sep-17 02:00N 38°26' W 009°26'5 8.5
2017-Sep-17 01:25N 38°25' W 009°20'4 9.1
2017-Sep-17 01:00N 38°24' W 009°15'7 8.8
2017-Sep-17 00:14N 38°26' W 009°07'1 3.3
2017-Sep-16 23:58N 38°26' W 009°07'0 0.0
2017-Sep-15 09:26N 38°26' W 009°07'0 0.4
2017-Sep-15 09:00N 38°26' W 009°07'0 0.0
2017-Sep-14 11:19N 38°26' W 009°07'0 0.3
2017-Sep-14 11:00N 38°26' W 009°07'4 7.2
2017-Sep-14 10:24N 38°24' W 009°12'4 9.2
2017-Sep-14 10:00N 38°24' W 009°16'5 9.5
2017-Sep-14 09:30N 38°23' W 009°22'3 6.6
2017-Sep-14 08:59N 38°23' W 009°26'3 5.3
2017-Sep-14 08:29N 38°26' W 009°27'1 2.8
2017-Sep-14 08:00N 38°27' W 009°28'2 3.3
2017-Sep-14 07:28N 38°26' W 009°27'0 0.6
2017-Sep-14 07:00N 38°26' W 009°27'0 0.5
2017-Sep-14 06:27N 38°26' W 009°27'0 0.5
2017-Sep-14 06:00N 38°26' W 009°27'0 0.6
2017-Sep-14 05:29N 38°27' W 009°28'2 3.4
2017-Sep-14 05:00N 38°25' W 009°27'0 0.8
2017-Sep-14 04:29N 38°25' W 009°27'1 1.4
2017-Sep-14 04:01N 38°24' W 009°27'0 0.8
2017-Sep-14 03:30N 38°24' W 009°27'1 1.0
2017-Sep-14 03:00N 38°23' W 009°27'1 2.0
2017-Sep-14 02:26N 38°23' W 009°25'5 9.2
2017-Sep-14 01:55N 38°23' W 009°19'4 9.4
2017-Sep-14 01:30N 38°24' W 009°14'6 9.6
2017-Sep-14 00:54N 38°26' W 009°07'1 0.6
2017-Sep-13 23:33N 38°26' W 009°07'0 0.0
2017-Sep-13 23:29N 38°26' W 009°07'5 5.4
2017-Sep-13 22:31N 38°24' W 009°13'0 9.3
2017-Sep-13 22:30N 38°24' W 009°13'5 9.0
2017-Sep-13 21:59N 38°24' W 009°19'4 9.1
2017-Sep-13 21:30N 38°23' W 009°24'2 2.5
2017-Sep-13 20:53N 38°22' W 009°26'0 0.4
2017-Sep-13 20:31N 38°22' W 009°26'2 4.9
2017-Sep-13 20:00N 38°24' W 009°28'3 5.1
2017-Sep-13 19:30N 38°26' W 009°30'2 4.0
2017-Sep-13 19:00N 38°25' W 009°32'2 3.5
2017-Sep-13 18:29N 38°24' W 009°34'1 1.5
2017-Sep-13 17:59N 38°25' W 009°34'2 3.1
2017-Sep-13 17:29N 38°24' W 009°33'0 0.2
2017-Sep-13 17:00N 38°24' W 009°33'0 0.2
2017-Sep-13 16:30N 38°24' W 009°33'0 0.4
2017-Sep-13 15:59N 38°24' W 009°33'0 0.5
2017-Sep-13 15:28N 38°24' W 009°33'1 2.4
2017-Sep-13 15:00N 38°24' W 009°32'1 2.2
2017-Sep-13 14:30N 38°25' W 009°31'0 0.8
2017-Sep-13 13:57N 38°25' W 009°31'0 0.7
2017-Sep-13 13:29N 38°26' W 009°30'1 1.2
2017-Sep-13 12:58N 38°26' W 009°29'0 1.0
2017-Sep-13 12:29N 38°26' W 009°29'0 0.7
2017-Sep-13 12:00N 38°26' W 009°28'0 0.3
2017-Sep-13 11:26N 38°26' W 009°28'4 7.5
2017-Sep-13 10:58N 38°26' W 009°24'4 9.1
2017-Sep-13 10:30N 38°25' W 009°19'5 9.1
2017-Sep-13 10:00N 38°24' W 009°13'6 9.1
2017-Sep-13 09:23N 38°26' W 009°06'0 0.5
2017-Sep-13 08:48N 38°26' W 009°07'0 0.0
2017-Sep-11 18:32N 38°26' W 009°07'0 0.0
2017-Sep-11 18:30N 38°26' W 009°07'0 0.1
2017-Sep-11 18:00N 38°26' W 009°07'2 3.3
2017-Sep-11 17:30N 38°25' W 009°08'5 9.3
2017-Sep-11 17:00N 38°24' W 009°14'5 9.3
2017-Sep-11 16:30N 38°23' W 009°20'5 8.9
2017-Sep-11 15:58N 38°23' W 009°26'1 3.1
2017-Sep-11 15:30N 38°24' W 009°27'2 4.7
2017-Sep-11 15:00N 38°26' W 009°27'0 0.1
2017-Sep-11 14:29N 38°26' W 009°27'1 1.4
2017-Sep-11 13:59N 38°25' W 009°27'  

Dump ship's entire track history